Ana Sayfa
METAR-TAF:

METAR-TAF

Havaalanları :

Siirt Havalimanı

Siirt, Türkiye

Enlem: 37-58-41N, Boylam: 41-50-21E, yükseklik: 610 m

Güncel hava durumu gözlemi

Rapor saat 12:50 UTC de 16 saat ve 7 dakika önce yapıldı.
Rüzgar batı/güneybatıdan 7 kt
Sıcaklık 39°C
Nem 12%
Basınç 1000 hPa
Görüş mesafesi 10 km veya daha fazla
4000 ft yükseklikte az bulutlu

METAR: LTCL 141250Z 25007KT 9999 FEW040 39/05 Q1000

Saat: 07:57 (04:57 UTC)

Tahmin

Rapor saat 01:40 UTC de 3 saat ve 17 dakika önce yapıldı.
Ayın 15'si saat 03 UTC'den ayın 15'si saat 12 UTC'ye kadar geçerli Tahmin
Rüzgar değişken yönden 2 kt
Görüş mesafesi 10 km veya daha fazla
1500 m altında bulut yok ve kümülonimbus yok

TAF: LTCL 150140Z 1503/1512 VRB02KT CAVOK

4.000'den fazla havaalanı için hava durumu gözlemleri ve tahminleri (METAR ve TAF raporları).

Kullanılabilir istasyonlar harita üzerinde sarı ve kırmızı noktalarla gösterilir.

İstasyonun adını görmek için fareyi noktanın üzerinde gezdirin.

Sonrasında hava gözlem ve tahminlerini görmek için tıklayın.

Haritayı değiştirmek için: yaklaştırmak için siyah artı işaretli yeşil düğmeye ve uzaklaştırmak için de eksi işaretli düğmeye hızla tıklayın; bitişik haritalar için yeşil okları kullanın.


METAR-TAF: